Time;durP1;ratioP1;P1;durP2;ratioP2;P2;SDS_P1;SDS_P2;PMS_P1;PMS_P2;Temp;Humidity;BMP_temperature;BMP_pressure;BME280_temperature;BME280_humidity;BME280_pressure;Samples;Min_cycle;Max_cycle;Signal;HPM_P1;HPM_P2
2021/04/07 00:01:59;;;;;;;4.22;0.80;;;14.20;51.80;;;;;;5073687;28;20386;-82
2021/04/07 00:04:25;;;;;;;2.88;0.65;;;14.20;51.70;;;;;;5057006;28;20040;-80
2021/04/07 00:06:56;;;;;;;4.55;0.95;;;14.20;51.70;;;;;;5041245;28;20347;-80
2021/04/07 00:09:24;;;;;;;3.72;0.95;;;14.20;51.80;;;;;;5062068;28;20029;-79
2021/04/07 00:11:50;;;;;;;2.97;0.77;;;14.20;51.80;;;;;;5098157;28;20038;-81
2021/04/07 00:14:16;;;;;;;3.70;0.57;;;14.20;51.70;;;;;;5080282;28;20028;-80
2021/04/07 00:16:42;;;;;;;5.40;0.82;;;14.20;51.70;;;;;;5080510;28;20054;-81
2021/04/07 00:19:08;;;;;;;2.80;0.50;;;14.20;51.60;;;;;;5064733;28;20109;-81
2021/04/07 00:21:34;;;;;;;3.10;0.70;;;14.20;51.70;;;;;;5098239;28;20081;-81
2021/04/07 00:24:01;;;;;;;2.45;0.73;;;14.10;51.80;;;;;;5081327;28;20051;-80
2021/04/07 00:26:27;;;;;;;4.63;0.90;;;14.10;51.80;;;;;;5081080;28;20024;-81
2021/04/07 00:28:52;;;;;;;4.38;1.02;;;14.10;51.90;;;;;;5097494;28;20077;-81
2021/04/07 00:31:18;;;;;;;3.45;0.93;;;14.10;51.90;;;;;;5097814;28;20028;-81
2021/04/07 00:33:44;;;;;;;3.63;0.98;;;14.10;52.00;;;;;;5063660;28;20051;-80
2021/04/07 00:36:10;;;;;;;1.70;0.68;;;14.10;52.00;;;;;;5063961;28;20040;-80
2021/04/07 00:38:36;;;;;;;3.47;0.95;;;14.10;52.00;;;;;;5063596;28;20367;-81
2021/04/07 00:41:02;;;;;;;2.72;0.88;;;14.10;52.00;;;;;;5098274;28;20170;-79
2021/04/07 00:43:28;;;;;;;3.10;0.80;;;14.10;52.00;;;;;;5080283;28;20052;-81
2021/04/07 00:45:54;;;;;;;3.42;0.55;;;14.10;52.00;;;;;;5080546;28;20082;-81
2021/04/07 00:48:21;;;;;;;3.65;0.70;;;14.10;52.00;;;;;;5080194;28;20043;-81
2021/04/07 00:50:47;;;;;;;3.05;0.73;;;14.10;51.90;;;;;;5063480;28;20040;-80
2021/04/07 00:53:13;;;;;;;2.90;1.00;;;14.10;51.90;;;;;;5080039;28;20461;-80
2021/04/07 00:55:45;;;;;;;5.28;0.93;;;14.10;51.80;;;;;;5079092;28;20044;-80
2021/04/07 00:58:12;;;;;;;3.00;0.98;;;14.00;51.70;;;;;;5079241;28;20028;-80
2021/04/07 01:00:41;;;;;;;2.05;0.52;;;14.00;51.80;;;;;;5080131;28;20032;-80
2021/04/07 01:03:11;;;;;;;1.58;0.50;;;14.00;52.00;;;;;;5079884;28;20036;-79
2021/04/07 01:05:36;;;;;;;3.83;0.80;;;14.00;52.00;;;;;;5079937;28;20047;-81
2021/04/07 01:08:02;;;;;;;3.80;0.52;;;14.00;52.00;;;;;;5079579;28;20123;-80
2021/04/07 01:10:28;;;;;;;3.63;0.85;;;14.00;52.00;;;;;;5079324;28;20044;-80
2021/04/07 01:12:55;;;;;;;3.35;0.60;;;14.00;52.10;;;;;;5079198;28;20442;-81
2021/04/07 01:15:22;;;;;;;3.25;0.80;;;13.90;52.00;;;;;;5079802;28;20431;-80
2021/04/07 01:17:48;;;;;;;2.75;0.63;;;14.00;52.10;;;;;;5079227;28;20530;-81
2021/04/07 01:20:16;;;;;;;2.13;0.65;;;14.00;52.20;;;;;;5078897;28;20427;-81
2021/04/07 01:22:47;;;;;;;2.00;0.80;;;13.90;52.20;;;;;;5079206;28;20378;-79
2021/04/07 01:25:13;;;;;;;3.30;0.60;;;13.90;52.20;;;;;;5078939;28;20055;-80
2021/04/07 01:27:39;;;;;;;3.63;0.60;;;13.90;52.20;;;;;;5078997;28;20031;-80
2021/04/07 01:30:11;;;;;;;2.92;0.63;;;13.90;52.10;;;;;;5079459;28;20105;-80
2021/04/07 01:32:38;;;;;;;5.13;0.95;;;13.90;52.10;;;;;;5062875;28;20040;-79
2021/04/07 01:35:06;;;;;;;3.13;0.80;;;13.90;52.10;;;;;;5097651;28;20039;-80
2021/04/07 01:37:36;;;;;;;2.65;0.65;;;13.90;52.00;;;;;;5078872;28;20125;-81
2021/04/07 01:40:09;;;;;;;3.38;0.70;;;13.90;51.90;;;;;;5079139;28;20032;-80
2021/04/07 01:42:35;;;;;;;3.08;0.65;;;13.90;52.00;;;;;;5075898;28;20071;-80
2021/04/07 01:45:03;;;;;;;4.25;0.70;;;13.90;52.10;;;;;;5058935;28;20112;-80
2021/04/07 01:47:30;;;;;;;4.05;0.70;;;13.80;52.10;;;;;;5041818;28;20355;-80
2021/04/07 01:49:58;;;;;;;3.25;0.75;;;13.90;52.30;;;;;;5076029;28;20037;-80
2021/04/07 01:52:25;;;;;;;4.07;0.77;;;13.90;52.30;;;;;;5058724;28;20055;-79
2021/04/07 01:54:50;;;;;;;3.03;0.60;;;13.90;52.40;;;;;;5076180;28;20056;-80
2021/04/07 01:57:16;;;;;;;1.98;0.60;;;13.80;52.40;;;;;;5077235;28;20028;-82
2021/04/07 01:59:42;;;;;;;3.25;0.45;;;13.80;52.40;;;;;;5096412;28;20032;-82
2021/04/07 02:02:08;;;;;;;3.63;1.10;;;13.80;52.40;;;;;;5096760;28;20032;-83
2021/04/07 02:04:34;;;;;;;2.90;0.50;;;13.80;52.40;;;;;;5061828;28;20064;-81
2021/04/07 02:07:11;;;;;;;1.90;0.40;;;13.80;52.40;;;;;;5061734;28;20097;-81
2021/04/07 02:09:37;;;;;;;2.60;0.55;;;13.80;52.40;;;;;;5096751;28;20060;-81
2021/04/07 02:12:04;;;;;;;2.15;0.60;;;13.80;52.40;;;;;;5078557;28;20074;-80
2021/04/07 02:14:30;;;;;;;3.30;0.60;;;13.70;52.30;;;;;;5078415;28;20111;-80
2021/04/07 02:16:57;;;;;;;2.78;0.88;;;13.80;52.30;;;;;;5078925;28;20036;-80
2021/04/07 02:19:24;;;;;;;2.95;0.60;;;13.80;52.30;;;;;;5061520;28;20493;-82
2021/04/07 02:22:07;;;;;;;2.83;0.57;;;13.80;52.30;;;;;;5061462;28;20040;-81
2021/04/07 02:24:41;;;;;;;1.90;0.60;;;13.70;52.00;;;;;;5078709;28;20100;-75
2021/04/07 02:27:14;;;;;;;;;;;13.70;51.80;;;;;;5077876;28;20028;-79
2021/04/07 02:29:42;;;;;;;6.25;0.80;;;13.70;51.80;;;;;;5077727;28;19920;-79
2021/04/07 02:32:08;;;;;;;4.85;0.60;;;13.70;52.20;;;;;;5095356;28;20101;-82
2021/04/07 02:34:38;;;;;;;2.55;0.70;;;13.70;52.30;;;;;;5095649;28;20047;-80
2021/04/07 02:37:04;;;;;;;2.33;0.47;;;13.70;52.20;;;;;;5095945;28;20051;-79
2021/04/07 02:39:31;;;;;;;3.42;0.57;;;13.60;52.10;;;;;;5078096;28;20036;-80
2021/04/07 02:41:57;;;;;;;4.75;0.68;;;13.60;52.10;;;;;;5095947;28;20048;-81
2021/04/07 02:44:22;;;;;;;3.40;0.70;;;13.60;52.10;;;;;;5096059;28;20090;-81
2021/04/07 02:46:49;;;;;;;3.90;1.02;;;13.60;52.20;;;;;;5095617;28;20439;-81
2021/04/07 02:49:15;;;;;;;2.25;0.40;;;13.60;52.10;;;;;;5095803;28;20061;-79
2021/04/07 02:51:40;;;;;;;2.50;0.60;;;13.60;52.20;;;;;;5095681;28;20028;-80
2021/04/07 02:54:06;;;;;;;4.72;0.68;;;13.60;52.10;;;;;;5077524;28;20048;-79
2021/04/07 02:56:33;;;;;;;2.60;0.45;;;13.60;52.10;;;;;;5077656;28;20040;-79
2021/04/07 02:58:59;;;;;;;2.13;0.30;;;13.60;52.10;;;;;;5095239;28;20441;-81
2021/04/07 03:01:26;;;;;;;4.88;0.70;;;13.60;52.10;;;;;;5095414;28;20044;-79
2021/04/07 03:03:52;;;;;;;2.58;0.57;;;13.60;52.10;;;;;;5095863;28;20183;-80
2021/04/07 03:06:18;;;;;;;2.38;0.65;;;13.60;52.10;;;;;;5095311;28;20439;-80
2021/04/07 03:08:45;;;;;;;3.55;0.68;;;13.60;52.20;;;;;;5077802;28;20115;-81
2021/04/07 03:11:12;;;;;;;3.58;0.60;;;13.60;52.10;;;;;;5078266;28;20046;-79
2021/04/07 03:13:38;;;;;;;3.03;0.45;;;13.60;52.10;;;;;;5077389;28;20093;-80
2021/04/07 03:16:04;;;;;;;2.70;0.60;;;13.60;52.10;;;;;;5095224;28;20426;-83
2021/04/07 03:18:30;;;;;;;2.67;0.70;;;13.60;52.10;;;;;;5077508;28;20100;-80
2021/04/07 03:20:56;;;;;;;2.78;0.68;;;13.60;52.10;;;;;;5095879;28;20044;-82
2021/04/07 03:23:21;;;;;;;3.60;0.60;;;13.60;52.10;;;;;;5095211;28;20036;-81
2021/04/07 03:25:47;;;;;;;2.40;0.70;;;13.60;52.00;;;;;;5094818;28;20039;-79
2021/04/07 03:28:13;;;;;;;1.90;0.40;;;13.60;52.10;;;;;;5095124;28;20393;-80
2021/04/07 03:30:51;;;;;;;2.33;0.57;;;13.60;52.70;;;;;;5077406;28;20443;-79
2021/04/07 03:33:43;;;;;;;3.15;0.43;;;13.50;52.00;;;;;;5095380;28;20061;-80
2021/04/07 03:36:09;;;;;;;3.13;0.88;;;13.50;52.00;;;;;;5090855;28;20052;-78
2021/04/07 03:38:36;;;;;;;3.05;0.82;;;13.50;52.10;;;;;;5095553;28;20044;-79
2021/04/07 03:41:02;;;;;;;2.85;0.65;;;13.50;52.10;;;;;;5077114;28;20461;-80
2021/04/07 03:43:29;;;;;;;2.47;0.40;;;13.50;52.10;;;;;;5097304;28;20032;-79
2021/04/07 03:45:57;;;;;;;2.65;0.70;;;13.50;52.10;;;;;;5099389;28;20104;-80
2021/04/07 03:48:27;;;;;;;2.50;0.55;;;13.50;52.10;;;;;;5081110;28;20040;-81
2021/04/07 03:50:54;;;;;;;3.35;0.80;;;13.50;52.10;;;;;;5099914;28;20028;-81
2021/04/07 03:53:20;;;;;;;2.55;0.55;;;13.50;52.20;;;;;;5099132;28;20109;-80
2021/04/07 03:55:49;;;;;;;1.90;0.50;;;13.50;52.20;;;;;;5098341;28;20059;-81
2021/04/07 03:58:15;;;;;;;3.20;0.50;;;13.50;52.20;;;;;;5098529;28;20354;-80
2021/04/07 04:00:41;;;;;;;4.05;0.70;;;13.50;52.20;;;;;;5080961;28;20044;-81
2021/04/07 04:03:07;;;;;;;4.80;0.93;;;13.50;52.20;;;;;;5080384;28;20040;-81
2021/04/07 04:05:34;;;;;;;2.45;0.70;;;13.50;52.30;;;;;;5081525;28;20032;-80
2021/04/07 04:08:01;;;;;;;3.22;0.68;;;13.50;52.30;;;;;;5098643;28;20119;-78
2021/04/07 04:10:27;;;;;;;4.32;0.80;;;13.50;52.40;;;;;;5081066;28;20166;-81
2021/04/07 04:12:54;;;;;;;4.38;0.90;;;13.50;52.40;;;;;;5098737;28;20063;-80
2021/04/07 04:15:21;;;;;;;2.60;0.65;;;13.50;52.50;;;;;;5080571;28;20040;-81
2021/04/07 04:17:46;;;;;;;2.35;0.73;;;13.50;52.60;;;;;;5099415;28;20385;-79
2021/04/07 04:20:13;;;;;;;5.70;1.38;;;13.30;52.30;;;;;;5098703;28;20067;-79
2021/04/07 04:22:40;;;;;;;3.15;0.77;;;13.20;53.10;;;;;;5099113;28;20127;-80
2021/04/07 04:25:08;;;;;;;6.00;1.17;;;13.20;53.90;;;;;;5080428;28;20036;-82
2021/04/07 04:27:34;;;;;;;6.18;0.98;;;13.20;54.00;;;;;;5097881;28;20055;-76
2021/04/07 04:30:01;;;;;;;8.27;1.15;;;13.20;54.40;;;;;;5095046;28;20427;-75
2021/04/07 04:32:27;;;;;;;5.10;1.10;;;13.20;54.70;;;;;;5098127;28;20036;-71
2021/04/07 04:34:53;;;;;;;3.40;0.80;;;13.20;54.20;;;;;;5079664;28;20047;-76
2021/04/07 04:37:19;;;;;;;4.90;0.73;;;13.30;54.00;;;;;;5098138;28;20036;-73
2021/04/07 04:39:45;;;;;;;11.10;1.15;;;13.40;53.80;;;;;;5097679;28;20044;-78
2021/04/07 04:42:11;;;;;;;5.22;1.05;;;13.60;53.60;;;;;;5096211;28;20051;-78
2021/04/07 04:44:36;;;;;;;4.13;0.80;;;13.90;53.80;;;;;;5096935;28;20459;-78
2021/04/07 04:47:02;;;;;;;7.30;1.00;;;14.10;53.80;;;;;;5097923;28;20035;-71
2021/04/07 04:49:28;;;;;;;6.07;1.13;;;14.30;53.80;;;;;;5080350;28;20048;-78
2021/04/07 04:51:54;;;;;;;11.32;1.80;;;14.50;53.80;;;;;;5097548;28;20054;-78
2021/04/07 04:54:20;;;;;;;10.65;1.48;;;14.60;53.10;;;;;;5096382;28;20146;-78
2021/04/07 04:56:45;;;;;;;13.07;1.85;;;14.80;54.20;;;;;;5098097;28;20040;-78
2021/04/07 04:59:11;;;;;;;8.20;1.20;;;14.90;54.20;;;;;;5097404;28;20036;-78
2021/04/07 05:01:37;;;;;;;9.80;1.40;;;15.00;54.50;;;;;;5097672;28;20032;-76
2021/04/07 05:04:06;;;;;;;9.73;1.73;;;15.10;54.90;;;;;;5097473;28;20054;-78
2021/04/07 05:06:35;;;;;;;13.45;1.70;;;15.20;55.40;;;;;;5098084;28;20044;-74
2021/04/07 05:09:04;;;;;;;11.05;1.67;;;15.20;55.90;;;;;;5096979;28;20451;-76
2021/04/07 05:11:32;;;;;;;15.90;1.88;;;15.40;55.90;;;;;;5097327;28;20046;-72
2021/04/07 05:14:02;;;;;;;7.53;1.65;;;15.40;56.10;;;;;;5097456;28;20106;-77
2021/04/07 05:16:28;;;;;;;8.85;1.75;;;15.50;56.10;;;;;;5079300;28;20495;-78
2021/04/07 05:18:54;;;;;;;10.48;2.00;;;15.60;56.00;;;;;;5079367;28;20362;-76
2021/04/07 05:21:20;;;;;;;9.65;1.58;;;15.80;55.90;;;;;;5097120;28;20043;-78
2021/04/07 05:23:46;;;;;;;8.65;1.67;;;15.90;56.10;;;;;;5096922;28;20462;-78
2021/04/07 05:26:12;;;;;;;11.38;2.05;;;16.00;56.30;;;;;;5097120;28;20052;-76
2021/04/07 05:28:42;;;;;;;10.82;1.35;;;16.10;56.20;;;;;;5097243;28;20044;-80
2021/04/07 05:31:12;;;;;;;20.98;2.05;;;16.20;56.10;;;;;;5096631;28;20335;-76
2021/04/07 05:33:40;;;;;;;9.20;1.25;;;16.20;56.00;;;;;;5097000;28;20407;-78
2021/04/07 05:36:11;;;;;;;6.55;1.10;;;16.30;55.90;;;;;;5097183;28;20097;-76
2021/04/07 05:38:38;;;;;;;7.50;1.00;;;16.30;56.00;;;;;;5096445;28;20127;-78
2021/04/07 05:41:05;;;;;;;8.10;1.27;;;16.40;55.80;;;;;;5096893;28;20051;-77
2021/04/07 05:43:32;;;;;;;11.98;1.10;;;16.50;55.60;;;;;;5096272;28;20028;-77
2021/04/07 05:45:58;;;;;;;6.25;1.27;;;16.50;55.40;;;;;;5096406;28;20044;-77
2021/04/07 05:48:24;;;;;;;5.97;1.10;;;16.60;55.30;;;;;;5096560;28;20420;-77
2021/04/07 05:50:52;;;;;;;5.68;1.45;;;16.60;55.10;;;;;;5096229;28;20047;-75
2021/04/07 05:53:19;;;;;;;8.15;1.15;;;16.60;55.20;;;;;;5094805;28;20439;-75
2021/04/07 05:55:46;;;;;;;9.70;1.33;;;16.70;54.90;;;;;;5096287;28;20140;-73
2021/04/07 05:58:13;;;;;;;10.73;1.67;;;16.70;54.70;;;;;;5096583;28;20439;-76
2021/04/07 06:00:40;;;;;;;14.65;1.30;;;16.70;54.40;;;;;;5096663;28;20122;-78
2021/04/07 06:03:07;;;;;;;7.28;1.40;;;16.80;54.20;;;;;;5097018;28;20059;-78
2021/04/07 06:05:39;;;;;;;10.45;1.30;;;16.90;54.00;;;;;;5096142;28;20044;-76
2021/04/07 06:08:06;;;;;;;7.05;1.10;;;16.90;53.80;;;;;;5096428;28;20040;-75
2021/04/07 06:10:35;;;;;;;7.97;1.40;;;17.00;53.50;;;;;;5096438;28;20044;-75
2021/04/07 06:13:01;;;;;;;11.32;1.88;;;17.10;53.00;;;;;;5096051;28;20114;-77
2021/04/07 06:15:28;;;;;;;6.28;1.02;;;17.10;52.70;;;;;;5096402;28;20040;-75
2021/04/07 06:18:00;;;;;;;13.30;1.63;;;17.20;52.50;;;;;;5096469;28;20044;-76
2021/04/07 06:20:29;;;;;;;10.32;1.00;;;17.30;52.20;;;;;;5078177;28;20046;-75
2021/04/07 06:22:55;;;;;;;6.95;0.82;;;17.30;51.90;;;;;;5095892;28;20032;-77
2021/04/07 06:25:22;;;;;;;6.75;1.05;;;17.30;51.70;;;;;;5095757;28;20040;-76
2021/04/07 06:27:52;;;;;;;5.93;0.77;;;17.30;51.50;;;;;;5095723;28;20378;-75
2021/04/07 06:30:19;;;;;;;5.68;1.15;;;17.40;51.40;;;;;;5095802;28;20040;-76
2021/04/07 06:32:46;;;;;;;11.75;1.50;;;17.40;50.70;;;;;;5096102;28;20105;-77
2021/04/07 06:35:12;;;;;;;8.85;1.35;;;16.70;52.50;;;;;;5095820;28;20044;-76
2021/04/07 06:37:38;;;;;;;7.88;1.48;;;16.30;53.60;;;;;;5096002;28;20039;-77
2021/04/07 06:40:07;;;;;;;13.15;1.70;;;16.10;54.20;;;;;;5095673;28;20032;-75
2021/04/07 06:42:33;;;;;;;10.27;1.27;;;15.90;55.30;;;;;;5096238;28;20032;-76
2021/04/07 06:45:00;;;;;;;9.23;1.70;;;15.80;55.50;;;;;;5095848;28;20419;-75
2021/04/07 06:47:26;;;;;;;7.25;1.33;;;15.80;56.10;;;;;;5096011;28;20058;-76
2021/04/07 06:49:53;;;;;;;8.73;1.52;;;15.70;58.30;;;;;;5095614;28;20080;-78
2021/04/07 06:52:22;;;;;;;12.45;1.83;;;15.70;59.40;;;;;;5096150;28;20052;-76
2021/04/07 06:54:52;;;;;;;10.02;1.42;;;15.70;60.10;;;;;;5095577;28;20048;-76
2021/04/07 06:57:18;;;;;;;9.70;1.13;;;16.00;57.20;;;;;;5093708;28;20036;-77
2021/04/07 06:59:44;;;;;;;7.80;1.27;;;16.30;55.40;;;;;;5095799;28;20036;-76
2021/04/07 07:02:12;;;;;;;11.50;1.92;;;16.50;54.80;;;;;;5095378;28;20040;-77
2021/04/07 07:04:39;;;;;;;5.93;1.08;;;16.70;53.90;;;;;;5095313;28;20442;-78
2021/04/07 07:07:05;;;;;;;5.47;0.88;;;16.90;53.40;;;;;;5094941;28;20431;-76
2021/04/07 07:09:31;;;;;;;7.30;1.42;;;17.00;53.10;;;;;;5092434;28;20113;-77
2021/04/07 07:11:59;;;;;;;4.28;0.93;;;17.10;52.80;;;;;;5094972;28;20075;-79
2021/04/07 07:14:25;;;;;;;5.63;1.25;;;17.10;52.50;;;;;;5077214;28;20038;-82
2021/04/07 07:16:52;;;;;;;6.40;0.95;;;17.30;52.40;;;;;;5095317;28;20040;-78
2021/04/07 07:19:22;;;;;;;4.28;1.00;;;17.30;52.30;;;;;;5095280;28;20039;-79
2021/04/07 07:21:53;;;;;;;6.65;1.08;;;17.30;52.20;;;;;;5077421;28;20138;-80
2021/04/07 07:24:30;;;;;;;5.63;1.30;;;17.40;51.90;;;;;;5095013;28;20419;-78
2021/04/07 07:26:59;;;;;;;5.25;1.33;;;17.40;51.60;;;;;;5095106;28;20426;-82
2021/04/07 07:29:27;;;;;;;4.85;1.00;;;17.50;51.70;;;;;;5095658;28;20070;-79
2021/04/07 07:32:04;;;;;;;4.22;1.10;;;17.50;51.50;;;;;;5095323;28;20316;-81
2021/04/07 07:34:31;;;;;;;5.28;0.93;;;17.50;51.40;;;;;;5094917;28;20043;-77
2021/04/07 07:36:59;;;;;;;4.20;1.10;;;17.50;51.50;;;;;;5095016;28;20105;-79
2021/04/07 07:39:28;;;;;;;8.50;1.67;;;17.60;51.50;;;;;;5094831;28;20097;-78
2021/04/07 07:41:59;;;;;;;6.05;1.60;;;17.60;51.40;;;;;;5095025;28;20040;-79
2021/04/07 07:44:25;;;;;;;3.97;1.25;;;17.60;51.40;;;;;;5094917;28;20055;-76
2021/04/07 07:46:57;;;;;;;5.55;1.30;;;17.60;51.50;;;;;;5087337;28;20044;-79
2021/04/07 07:49:24;;;;;;;8.93;1.13;;;17.60;51.30;;;;;;5074739;28;20044;-78
2021/04/07 07:51:50;;;;;;;5.88;1.42;;;17.60;51.20;;;;;;5074633;28;20045;-78
2021/04/07 07:54:18;;;;;;;7.60;1.13;;;17.60;51.30;;;;;;5074316;28;20044;-80
2021/04/07 07:56:45;;;;;;;4.75;1.67;;;17.60;51.30;;;;;;5074657;28;20466;-79
2021/04/07 07:59:11;;;;;;;6.18;1.40;;;17.60;51.10;;;;;;5056997;28;20155;-78
2021/04/07 08:01:45;;;;;;;6.47;1.38;;;17.70;51.10;;;;;;5077310;28;20104;-79
2021/04/07 08:04:11;;;;;;;6.03;1.60;;;17.60;51.10;;;;;;5057020;28;20113;-79
2021/04/07 08:06:37;;;;;;;8.52;1.88;;;17.60;53.00;;;;;;5056838;28;20029;-79
2021/04/07 08:09:04;;;;;;;8.48;1.75;;;17.40;56.60;;;;;;5083744;28;20047;-78
2021/04/07 08:11:30;;;;;;;5.07;1.15;;;17.40;54.20;;;;;;5093404;28;20117;-74
2021/04/07 08:14:00;;;;;;;6.50;1.50;;;17.50;53.10;;;;;;5093301;28;20060;-78
2021/04/07 08:16:27;;;;;;;7.03;1.88;;;17.50;52.50;;;;;;5093474;28;20039;-77
2021/04/07 08:18:54;;;;;;;8.15;1.92;;;17.60;52.10;;;;;;5093295;28;20032;-81
2021/04/07 08:21:26;;;;;;;10.30;2.10;;;17.70;51.90;;;;;;5079826;28;20045;-79
2021/04/07 08:24:00;;;;;;;8.48;1.90;;;17.70;51.80;;;;;;5074266;28;20509;-75
2021/04/07 08:26:29;;;;;;;7.82;1.40;;;17.70;51.60;;;;;;5074077;28;20028;-76
2021/04/07 08:28:56;;;;;;;5.82;1.80;;;17.70;51.40;;;;;;5075564;28;20060;-77
2021/04/07 08:31:23;;;;;;;7.82;1.73;;;17.80;51.40;;;;;;5078026;28;20044;-77
2021/04/07 08:33:51;;;;;;;10.98;2.10;;;17.80;51.30;;;;;;5077604;28;20032;-78
2021/04/07 08:36:19;;;;;;;5.80;2.05;;;17.80;51.30;;;;;;5077915;28;20359;-80
2021/04/07 08:38:45;;;;;;;8.63;2.08;;;17.70;51.30;;;;;;5077329;28;20044;-79
2021/04/07 08:41:13;;;;;;;7.70;1.63;;;17.70;51.60;;;;;;5077849;28;20101;-77
2021/04/07 08:43:40;;;;;;;8.75;1.40;;;17.70;52.00;;;;;;5078027;28;20043;-78
2021/04/07 08:46:22;;;;;;;6.30;1.58;;;17.70;51.30;;;;;;5077525;28;20116;-77
2021/04/07 08:48:48;;;;;;;7.50;1.95;;;17.70;51.30;;;;;;5060066;28;20041;-77
2021/04/07 08:51:17;;;;;;;7.65;2.00;;;17.60;51.70;;;;;;5077366;28;20055;-78
2021/04/07 08:58:21;;;;;;;7.75;2.00;;;17.70;51.70;;;;;;5077223;28;20036;-80
2021/04/07 09:00:57;;;;;;;8.55;2.10;;;17.50;56.40;;;;;;5039726;28;20106;-79
2021/04/07 09:03:31;;;;;;;8.57;2.50;;;17.30;54.20;;;;;;5059457;28;20041;-79
2021/04/07 09:06:34;;;;;;;9.70;2.05;;;17.10;55.20;;;;;;5059814;28;20123;-79
2021/04/07 09:09:34;;;;;;;9.15;2.22;;;17.00;53.10;;;;;;5058902;28;20359;-79
2021/04/07 09:12:00;;;;;;;10.02;2.10;;;17.10;51.10;;;;;;5046819;28;20056;-81
2021/04/07 09:14:29;;;;;;;10.35;2.22;;;17.20;51.40;;;;;;5076703;28;20044;-77
2021/04/07 09:17:05;;;;;;;8.90;1.98;;;17.20;51.20;;;;;;5077109;28;20435;-79
2021/04/07 09:19:34;;;;;;;8.43;2.47;;;17.30;51.20;;;;;;5077117;28;20431;-77
2021/04/07 09:22:08;;;;;;;7.53;2.00;;;17.30;51.30;;;;;;5077151;28;20074;-79
2021/04/07 09:24:44;;;;;;;6.45;2.20;;;17.30;51.20;;;;;;5077171;28;20044;-80
2021/04/07 09:27:21;;;;;;;9.82;2.55;;;17.30;51.10;;;;;;5077002;28;20044;-78
2021/04/07 09:29:50;;;;;;;7.97;1.80;;;17.40;51.10;;;;;;5059329;28;20050;-81
2021/04/07 09:32:17;;;;;;;8.80;2.28;;;17.40;51.10;;;;;;5077501;28;20440;-77
2021/04/07 09:34:44;;;;;;;9.90;2.13;;;17.40;51.20;;;;;;5076864;28;20040;-77
2021/04/07 09:37:11;;;;;;;11.73;2.30;;;17.50;51.20;;;;;;5077375;28;20050;-78
2021/04/07 09:39:37;;;;;;;7.15;2.17;;;17.50;51.10;;;;;;5076108;28;20348;-79
2021/04/07 09:42:05;;;;;;;9.35;2.55;;;17.50;51.10;;;;;;5076463;28;20036;-79
2021/04/07 09:44:30;;;;;;;7.15;2.47;;;17.60;51.20;;;;;;5076792;28;20068;-77
2021/04/07 09:46:57;;;;;;;8.23;2.00;;;17.60;51.10;;;;;;5058942;28;20146;-77
2021/04/07 09:49:24;;;;;;;8.80;2.20;;;17.60;51.10;;;;;;5076539;28;20082;-78
2021/04/07 09:51:51;;;;;;;6.68;2.13;;;17.60;51.00;;;;;;5076737;28;20063;-78
2021/04/07 09:54:25;;;;;;;6.15;1.77;;;17.60;51.10;;;;;;5076558;28;20058;-80
2021/04/07 09:56:57;;;;;;;6.95;1.77;;;17.60;51.10;;;;;;5076393;28;20075;-79
2021/04/07 09:59:35;;;;;;;7.72;2.03;;;17.60;51.00;;;;;;5076240;28;20042;-78
2021/04/07 10:02:03;;;;;;;7.63;1.88;;;17.70;50.90;;;;;;5058129;28;20120;-80
2021/04/07 10:04:31;;;;;;;6.78;2.13;;;17.70;51.00;;;;;;5058318;28;20042;-81
2021/04/07 10:07:11;;;;;;;7.65;1.75;;;17.60;51.10;;;;;;5075820;28;20111;-77
2021/04/07 10:09:37;;;;;;;11.40;2.85;;;17.60;51.20;;;;;;5075887;28;20112;-77
2021/04/07 10:12:07;;;;;;;7.15;1.85;;;17.60;51.00;;;;;;5075879;28;20107;-79
2021/04/07 10:14:34;;;;;;;10.35;2.40;;;17.60;50.80;;;;;;5057898;28;20053;-78
2021/04/07 10:17:11;;;;;;;7.95;2.35;;;17.50;52.30;;;;;;5075703;28;20035;-78
2021/04/07 10:19:38;;;;;;;9.65;2.13;;;17.50;52.20;;;;;;5079134;28;20094;-80
2021/04/07 10:22:07;;;;;;;8.05;2.05;;;17.50;52.40;;;;;;5095282;28;20039;-79
2021/04/07 10:24:36;;;;;;;7.60;2.55;;;17.50;52.80;;;;;;5077647;28;20081;-81
2021/04/07 10:27:03;;;;;;;8.85;1.80;;;17.50;53.00;;;;;;5061540;28;20044;-82
2021/04/07 10:29:30;;;;;;;7.90;2.10;;;17.50;53.10;;;;;;5078400;28;20036;-79
2021/04/07 10:32:00;;;;;;;7.80;1.95;;;17.60;53.30;;;;;;5077816;28;20368;-80
2021/04/07 10:34:34;;;;;;;10.10;2.45;;;17.60;53.60;;;;;;5077955;28;20048;-81
2021/04/07 10:37:01;;;;;;;9.98;2.03;;;17.60;53.90;;;;;;5077908;28;20034;-81
2021/04/07 10:39:39;;;;;;;9.82;2.03;;;17.60;53.90;;;;;;5077565;28;20028;-80
2021/04/07 10:42:09;;;;;;;8.30;2.35;;;17.70;54.00;;;;;;5078152;28;20074;-82
2021/04/07 10:44:35;;;;;;;7.82;1.95;;;17.70;54.00;;;;;;5061732;28;20043;-80
2021/04/07 10:47:01;;;;;;;6.95;1.90;;;17.70;53.90;;;;;;5077823;28;20342;-80
2021/04/07 10:49:28;;;;;;;6.10;1.40;;;17.70;53.90;;;;;;5059093;28;20469;-80
2021/04/07 10:52:05;;;;;;;6.63;1.90;;;17.70;54.00;;;;;;5056949;28;20032;-77
2021/04/07 10:54:32;;;;;;;7.70;1.60;;;17.70;54.40;;;;;;5075014;28;20120;-76
2021/04/07 10:57:07;;;;;;;7.32;2.50;;;17.70;54.30;;;;;;5068329;28;20127;-75
2021/04/07 10:59:34;;;;;;;6.95;1.38;;;17.70;54.50;;;;;;5075080;28;20525;-78
2021/04/07 11:02:13;;;;;;;8.23;1.67;;;17.70;54.50;;;;;;5075462;28;20165;-77
2021/04/07 11:04:39;;;;;;;5.93;2.22;;;17.70;54.50;;;;;;5075140;28;20052;-76
2021/04/07 11:07:06;;;;;;;9.70;2.10;;;17.70;54.50;;;;;;5074790;28;20331;-77
2021/04/07 11:09:35;;;;;;;7.70;2.30;;;17.60;54.60;;;;;;5074989;28;20047;-77
2021/04/07 11:12:04;;;;;;;5.35;1.67;;;17.60;54.60;;;;;;5075171;28;20120;-76
2021/04/07 11:14:32;;;;;;;5.97;1.60;;;17.60;54.70;;;;;;5075015;28;20347;-78
2021/04/07 11:17:01;;;;;;;5.45;1.52;;;17.60;54.50;;;;;;5074998;28;20094;-79
2021/04/07 11:19:35;;;;;;;9.63;1.85;;;17.60;55.20;;;;;;5075406;28;20060;-78
2021/04/07 11:22:02;;;;;;;3.67;1.35;;;17.60;54.50;;;;;;5074976;28;20079;-77
2021/04/07 11:24:28;;;;;;;7.47;1.80;;;17.60;54.60;;;;;;5074713;28;20044;-78
2021/04/07 11:26:54;;;;;;;7.63;1.90;;;17.60;54.50;;;;;;5075083;28;20063;-79
2021/04/07 11:29:20;;;;;;;4.60;1.33;;;17.60;54.20;;;;;;5075123;28;20050;-78
2021/04/07 11:31:50;;;;;;;5.35;1.45;;;17.70;54.10;;;;;;5075121;28;20044;-80
2021/04/07 11:34:18;;;;;;;9.30;2.33;;;17.70;53.90;;;;;;5074561;28;20109;-76
2021/04/07 11:37:09;;;;;;;5.20;1.40;;;17.70;53.90;;;;;;5073353;28;20028;-78
2021/04/07 11:39:48;;;;;;;6.93;1.92;;;17.70;53.70;;;;;;5095381;28;20119;-79
2021/04/07 11:42:25;;;;;;;4.85;1.52;;;17.80;53.60;;;;;;5094455;28;20412;-80
2021/04/07 11:44:51;;;;;;;5.88;1.50;;;17.80;53.60;;;;;;5077123;28;20066;-81
2021/04/07 11:47:17;;;;;;;6.38;1.35;;;17.70;53.70;;;;;;5095170;28;20077;-78
2021/04/07 11:49:43;;;;;;;5.10;1.58;;;17.70;53.80;;;;;;5094840;28;20101;-80
2021/04/07 11:52:11;;;;;;;6.13;1.20;;;17.70;53.90;;;;;;5076170;28;20071;-81
2021/04/07 11:54:38;;;;;;;5.72;1.40;;;17.70;54.00;;;;;;5074587;28;20395;-79
2021/04/07 11:57:05;;;;;;;9.38;1.70;;;17.70;54.10;;;;;;5074214;28;20079;-81
2021/04/07 11:59:35;;;;;;;7.03;1.05;;;17.70;54.20;;;;;;5074312;28;20029;-82
2021/04/07 12:02:01;;;;;;;5.88;1.63;;;17.70;54.20;;;;;;5057297;28;20033;-80
2021/04/07 12:04:31;;;;;;;4.95;1.48;;;17.70;54.20;;;;;;5059231;28;20391;-81
2021/04/07 12:06:57;;;;;;;5.95;1.80;;;17.80;54.10;;;;;;5078375;28;20194;-80
2021/04/07 12:09:24;;;;;;;6.93;1.88;;;17.80;54.10;;;;;;5060702;28;20044;-80
2021/04/07 12:11:50;;;;;;;6.18;1.60;;;17.70;54.00;;;;;;5060657;28;20114;-78
2021/04/07 12:14:16;;;;;;;6.70;1.58;;;17.70;54.10;;;;;;5060774;28;20079;-83
2021/04/07 12:16:42;;;;;;;4.18;1.67;;;17.70;54.20;;;;;;5078018;28;20428;-80
2021/04/07 12:19:10;;;;;;;5.97;1.58;;;17.60;54.20;;;;;;5078775;28;20056;-81
2021/04/07 12:21:37;;;;;;;4.57;1.40;;;17.60;54.30;;;;;;5061022;28;20432;-82
2021/04/07 12:24:05;;;;;;;4.15;1.52;;;17.50;54.40;;;;;;5077966;28;20033;-81
2021/04/07 12:26:34;;;;;;;6.25;1.70;;;17.50;54.40;;;;;;5060485;28;20040;-80
2021/04/07 12:28:59;;;;;;;6.85;1.35;;;17.50;54.50;;;;;;5060045;28;20082;-80
2021/04/07 12:31:25;;;;;;;5.25;1.25;;;17.40;54.60;;;;;;5060246;28;20064;-78
2021/04/07 12:33:55;;;;;;;5.32;1.40;;;17.40;54.70;;;;;;5078243;28;20032;-80
2021/04/07 12:36:26;;;;;;;3.72;1.25;;;17.40;54.70;;;;;;5060425;28;20048;-80
2021/04/07 12:38:53;;;;;;;5.10;1.42;;;17.30;54.70;;;;;;5077773;28;20036;-80
2021/04/07 12:43:48;;;;;;;3.72;1.08;;;17.30;54.80;;;;;;5077630;28;20036;-79
2021/04/07 12:46:15;;;;;;;4.78;1.15;;;17.20;54.70;;;;;;5077752;28;20047;-80
2021/04/07 12:48:43;;;;;;;6.63;1.70;;;17.20;54.80;;;;;;5060702;28;20040;-78
2021/04/07 12:51:09;;;;;;;3.88;1.35;;;17.20;54.70;;;;;;5060283;28;20047;-80
2021/04/07 12:53:35;;;;;;;3.47;1.20;;;17.20;54.80;;;;;;5077204;28;20032;-80
2021/04/07 12:56:01;;;;;;;4.72;1.27;;;17.10;54.80;;;;;;5062784;28;20386;-79
2021/04/07 12:58:27;;;;;;;6.45;1.40;;;17.10;55.00;;;;;;5076884;28;20044;-79